»·PEaware :: N2442P KBFL-KSBA

N2442P :: KBFL-KSBA

FLIGHT INFORMATION

Flight Status: Arrived
Operator: Privately registered:
United States
More flights under this callsign
Pilot: Ken Q. (14290)
Aircraft: MOONEY M-20K/M ENCORE BRAVO
(M20T)
More flights by this aircraft type
Origin: KBFL Meadows
United States
Destination: KSBA Santa Barbara Mun
United States
More flights between these airports :: More routes between these airports
Route: KBFL WP1 KSBA
File this flight plan on PilotEdge
Remarks: X
Altitude:
(Current/Filed)
8,500ft
Speed:
(Current/Filed)
175kts
Departed: 19-Feb-20 08:48 AM
Arrived: 19-Feb-20 09:29 AM
Distance/Time
Traveled:
1nm/0:41
Distance/Time
To Go:
Arrived

Flight Plot

Page will automatically refresh every two minutes.

Flight plan parsing failed; only flown route is shown


Map Options




Map Legend


Flown Route
Filed Route
Departure Airport
Arrival Airport
Navaid (VOR, NDB)
Fix

Horizontal Profiles

Position Reports

Time Latitude Longitude Heading Altitude Ground
Speed
19-Feb-20 08:21 35.425017 -119.042808 356 510ft 0kts
19-Feb-20 08:22 35.425017 -119.042808 356 510ft 0kts
19-Feb-20 08:23 35.425017 -119.042808 356 510ft 0kts
19-Feb-20 08:24 35.425017 -119.042808 356 510ft 0kts
19-Feb-20 08:25 35.425017 -119.042808 356 510ft 0kts
19-Feb-20 08:26 35.425017 -119.042808 356 510ft 0kts
19-Feb-20 08:27 35.425017 -119.042808 356 510ft 0kts
19-Feb-20 08:28 35.425017 -119.042808 356 510ft 0kts
19-Feb-20 08:29 35.425017 -119.042808 356 510ft 0kts
19-Feb-20 08:30 35.425017 -119.042808 356 510ft 0kts
19-Feb-20 08:31 35.425017 -119.042808 356 510ft 0kts
19-Feb-20 08:32 35.425017 -119.042808 356 510ft 0kts
19-Feb-20 08:33 35.425017 -119.042808 356 510ft 0kts
19-Feb-20 08:34 35.425017 -119.042808 356 510ft 0kts
19-Feb-20 08:35 35.425017 -119.042808 356 510ft 0kts
19-Feb-20 08:36 35.425017 -119.042808 355 510ft 0kts
19-Feb-20 08:37 35.425018 -119.042808 355 510ft 0kts
19-Feb-20 08:39 35.425018 -119.042809 355 510ft 0kts
19-Feb-20 08:40 35.425019 -119.042809 355 510ft 0kts
19-Feb-20 08:41 35.425019 -119.042809 355 510ft 0kts
19-Feb-20 08:42 35.425020 -119.042809 355 510ft 0kts
19-Feb-20 08:43 35.425021 -119.042809 355 510ft 0kts
19-Feb-20 08:44 35.425397 -119.044166 259 510ft 8kts
19-Feb-20 08:45 35.425366 -119.044549 259 510ft 0kts
19-Feb-20 08:46 35.425365 -119.044554 258 510ft 0kts
19-Feb-20 08:47 35.425297 -119.045578 262 510ft 19kts
19-Feb-20 08:48 35.440466 -119.063728 314 929ft 113kts
19-Feb-20 08:49 35.463964 -119.095602 286 1672ft 134kts
19-Feb-20 08:50 35.436684 -119.120735 194 2361ft 142kts
19-Feb-20 08:51 35.398095 -119.133876 194 3022ft 145kts
19-Feb-20 08:52 35.359258 -119.146677 194 3689ft 143kts
19-Feb-20 08:53 35.320641 -119.159141 194 4351ft 142kts
19-Feb-20 08:54 35.281797 -119.166694 185 5018ft 142kts
19-Feb-20 08:55 35.242369 -119.174098 191 5689ft 143kts
19-Feb-20 08:56 35.203216 -119.183683 191 6350ft 143kts
19-Feb-20 08:57 35.163945 -119.193035 191 7014ft 143kts
19-Feb-20 08:58 35.124764 -119.202402 191 7612ft 146kts
19-Feb-20 08:59 35.087207 -119.211271 191 8081ft 152kts
19-Feb-20 09:00 35.045433 -119.222780 196 8560ft 156kts
19-Feb-20 09:01 35.000666 -119.238127 196 8586ft 175kts
19-Feb-20 09:01 34.960982 -119.252056 196 8581ft 179kts
19-Feb-20 09:02 34.912706 -119.269053 196 8578ft 181kts
19-Feb-20 09:04 34.855776 -119.289224 196 8540ft 184kts
19-Feb-20 09:04 34.814830 -119.304021 201 8535ft 182kts
19-Feb-20 09:05 34.768827 -119.329097 200 8527ft 183kts
19-Feb-20 09:07 34.711219 -119.349243 195 8520ft 185kts
19-Feb-20 09:07 34.669578 -119.361806 194 8517ft 183kts
19-Feb-20 09:08 34.620136 -119.376553 194 8521ft 184kts
19-Feb-20 09:09 34.574182 -119.390265 194 8405ft 187kts
19-Feb-20 09:10 34.523149 -119.405685 194 7773ft 176kts
19-Feb-20 09:11 34.475164 -119.419742 194 7142ft 167kts
19-Feb-20 09:12 34.435274 -119.430938 194 6321ft 138kts
19-Feb-20 09:13 34.395858 -119.430154 176 5434ft 152kts
19-Feb-20 09:14 34.356136 -119.428528 176 4747ft 158kts
19-Feb-20 09:15 34.325724 -119.447565 282 4217ft 130kts
19-Feb-20 09:16 34.333962 -119.489323 286 3707ft 123kts
19-Feb-20 09:17 34.343016 -119.527393 286 3192ft 114kts
19-Feb-20 09:18 34.351174 -119.560663 286 2729ft 111kts
19-Feb-20 09:19 34.360162 -119.596325 286 2222ft 109kts
19-Feb-20 09:20 34.369232 -119.630973 290 1716ft 107kts
19-Feb-20 09:21 34.380196 -119.664642 290 1217ft 108kts
19-Feb-20 09:22 34.390918 -119.696405 293 937ft 97kts
19-Feb-20 09:23 34.404322 -119.724717 313 820ft 92kts
19-Feb-20 09:24 34.420774 -119.746474 307 804ft 86kts
19-Feb-20 09:25 34.432780 -119.771985 291 618ft 86kts
19-Feb-20 09:26 34.435755 -119.798083 249 541ft 94kts
19-Feb-20 09:27 34.428602 -119.827076 260 197ft 90kts
19-Feb-20 09:28 34.427373 -119.846430 151 13ft 1kts
19-Feb-20 09:29 34.426607 -119.845112 90 13ft 14kts
19-Feb-20 09:30 34.426689 -119.840026 87 13ft 13kts
19-Feb-20 09:31 34.424652 -119.837685 168 13ft 16kts
19-Feb-20 09:32 34.423155 -119.836586 68 13ft 7kts
19-Feb-20 09:33 34.423141 -119.836018 159 13ft 0kts
19-Feb-20 09:34 34.423141 -119.836018 159 13ft 0kts
19-Feb-20 09:35 34.423141 -119.836018 159 13ft 0kts
19-Feb-20 09:36 35.425017 -119.042808 356 510ft 0kts

Navigation Log

Ident Type
Flight plan parsing failed, navigation log unavailable